Aérodrome :
LOGIN :

S'inscrire | Disclaimer

   EN    FR    IT 

 










Légende :    VFR   VFR Marginal   IFR   IFR Intensif   IFR Très Intensif
Visi : 
Plafond : 
>= 8 km
>= 3000ft
5 à 8 km
1000 à 3000 ft
1500m à 5 km
500 à 1000 ft
800 à 1500m
200 à 500 ft
< 800m
< 200 ft
Symboles :   Orages  Brouillard  Fortes neiges  Fortes précipitations  Vent > 20 kt
SIGMETs :   Divers  Orages  Givrage  Turbulence  Onde Orograph.  Cendres Volcan.






- Altitude de l'aérodrome : 1020 ft
- Code IATA : ILZ


LZZI - Žilina

DERNIER METAR :
  • 101030Z 03003KT 300V110 9999 OVC041 04/M00 Q1019

METARs EXPIRÉS :
  • 101000Z VRB02KT 9999 FEW004 BKN037 03/01 Q1019
  • 100930Z VRB02KT 6000 -DZ FEW002 SCT016 BKN024 03/02 Q1019
  • 100900Z VRB01KT 5000 -DZ BR FEW004 BKN016 OVC020 03/02 Q1018
  • 100830Z 09003KT 040V110 6000 -DZ SCT004 BKN018 OVC026 02/02 Q1017
  • 100800Z 13004KT 6000 -DZ BKN004 OVC019 02/01 Q1017

TAF COR TAF LZZI
Valide du 10 à 09h jusqu'au 10 à 18h UTC


100833Z 1009/1018 VRB02KT 6000 -DZ SCT005 BKN027
TEMPO 1009/1011 4000 -DZ BR BKN004
BECMG 1010/1012 02005KT 9999 SCT030



MET'MAP, la Météo Aéronautique d'un coup d'oeil ! - Copyright ORBIFLY Décembre 2007 - Disclaimer

ORBIFLY MET'MAP TEAM :

Programmation & Développement : Alexandra Zaïnal
Sur une idée originale de : Baudouin d'Aumeries
Assistance à la programmation : Marc-Olivier Méhu
Soutien technique & logistique : Manuel Goepfert

Contact : metmap@orbifly.com




SOURCES & CREDITS :

   NOAA